Time;durP1;ratioP1;P1;durP2;ratioP2;P2;SDS_P1;SDS_P2;PMS_P1;PMS_P2;Temp;Humidity;BMP_temperature;BMP_pressure;BME280_temperature;BME280_humidity;BME280_pressure;Samples;Min_cycle;Max_cycle;Signal;HPM_P1;HPM_P2
2022/11/01 05:50:01;;;;;;;13.58;6.95;;;;;;;0.99;80.07;100795.90;1693309;83;21123;-45
2022/11/01 05:52:27;;;;;;;11.93;6.78;;;;;;;1.05;80.10;100791.02;1682403;83;21534;-45
2022/11/01 05:54:55;;;;;;;18.75;7.62;;;;;;;1.11;80.20;100787.84;1691165;85;21056;-39
2022/11/01 05:57:22;;;;;;;12.58;6.70;;;;;;;1.20;80.12;100788.25;1681923;83;21077;-38
2022/11/01 05:59:49;;;;;;;15.80;7.37;;;;;;;1.30;80.15;100792.13;1684439;85;21085;-45
2022/11/01 06:02:16;;;;;;;16.27;6.12;;;;;;;1.41;80.13;100792.20;1653848;85;21622;-38
2022/11/01 06:04:42;;;;;;;14.43;6.92;;;;;;;1.54;80.10;100794.91;1665178;85;21019;-45
2022/11/01 06:07:09;;;;;;;16.27;5.83;;;;;;;1.66;79.97;100787.71;1658136;84;21015;-46
2022/11/01 06:09:36;;;;;;;13.78;6.00;;;;;;;1.78;79.79;100798.55;1663129;85;21105;-47
2022/11/01 06:12:05;;;;;;;10.50;5.85;;;;;;;1.89;79.61;100801.60;1656839;85;21020;-47
2022/11/01 06:14:32;;;;;;;11.88;5.92;;;;;;;1.98;79.56;100800.72;1686659;83;21567;-38
2022/11/01 06:16:59;;;;;;;12.15;5.92;;;;;;;2.08;79.36;100798.09;1658080;84;21070;-38
2022/11/01 06:19:25;;;;;;;13.08;6.05;;;;;;;2.19;79.21;100798.14;1683522;84;21559;-46
2022/11/01 06:21:52;;;;;;;17.30;7.08;;;;;;;2.27;79.11;100795.48;1664427;84;21082;-46
2022/11/01 06:24:19;;;;;;;10.75;6.08;;;;;;;2.35;78.97;100795.38;1679671;84;21636;-38
2022/11/01 06:26:45;;;;;;;9.08;5.67;;;;;;;2.43;78.98;100796.96;1667826;85;21071;-38
2022/11/01 06:29:14;;;;;;;11.73;5.97;;;;;;;2.51;79.00;100795.59;1662648;85;21111;-39
2022/11/01 06:31:40;;;;;;;15.68;5.58;;;;;;;2.62;79.10;100798.20;1666078;84;21102;-39
2022/11/01 06:34:08;;;;;;;12.35;6.78;;;;;;;2.72;79.25;100796.84;1663051;84;21099;-46
2022/11/01 06:36:35;;;;;;;12.80;5.83;;;;;;;2.86;79.33;100799.98;1657440;85;21070;-46
2022/11/01 06:39:01;;;;;;;10.82;5.22;;;;;;;2.97;79.23;100797.81;1635062;86;21110;-38
2022/11/01 06:41:28;;;;;;;11.08;5.08;;;;;;;3.08;78.96;100801.28;1666150;85;21109;-46
2022/11/01 06:43:55;;;;;;;9.93;5.55;;;;;;;3.19;78.79;100802.57;1688433;83;21115;-47
2022/11/01 06:46:21;;;;;;;10.85;5.03;;;;;;;3.30;78.50;100806.83;1679665;84;21125;-47
2022/11/01 06:48:48;;;;;;;7.35;4.47;;;;;;;3.43;78.33;100803.02;1685469;84;21148;-39
2022/11/01 06:51:15;;;;;;;10.25;4.58;;;;;;;3.55;77.98;100802.58;1694054;85;21033;-36
2022/11/01 06:53:42;;;;;;;9.55;4.80;;;;;;;3.65;77.59;100796.88;1693743;83;21096;-37
2022/11/01 06:56:09;;;;;;;12.35;5.30;;;;;;;3.74;77.21;100804.57;1693717;85;21583;-38
2022/11/01 06:58:36;;;;;;;12.30;5.00;;;;;;;3.84;76.92;100801.91;1693817;83;21584;-46
2022/11/01 07:01:03;;;;;;;12.30;5.28;;;;;;;3.95;76.43;100800.98;1682741;84;21066;-45
2022/11/01 07:03:29;;;;;;;8.80;4.72;;;;;;;4.02;75.82;100801.66;1679503;84;21731;-47
2022/11/01 07:05:59;;;;;;;12.65;5.20;;;;;;;4.09;75.39;100801.03;1690234;85;21060;-38
2022/11/01 07:08:26;;;;;;;10.03;5.03;;;;;;;4.18;75.18;100799.19;1687380;83;22702;-39
2022/11/01 07:10:53;;;;;;;8.60;4.67;;;;;;;4.27;75.23;100806.83;1667552;84;21609;-46
2022/11/01 07:13:19;;;;;;;7.45;4.35;;;;;;;4.39;75.19;100801.59;1682206;84;21061;-46
2022/11/01 07:15:46;;;;;;;10.35;5.55;;;;;;;4.48;74.96;100795.01;1678656;84;21510;-39
2022/11/01 07:18:13;;;;;;;9.50;4.85;;;;;;;4.59;74.76;100794.06;1671544;84;21064;-38
2022/11/01 07:20:41;;;;;;;10.35;4.22;;;;;;;4.72;74.62;100791.02;1664068;84;21088;-39
2022/11/01 07:23:14;;;;;;;10.43;4.67;;;;;;;4.86;73.89;100787.97;1665518;84;21634;-47
2022/11/01 07:25:42;;;;;;;10.10;4.70;;;;;;;4.97;73.13;100792.64;1681647;85;21076;-46
2022/11/01 07:28:09;;;;;;;7.22;3.65;;;;;;;5.09;72.39;100789.54;1673878;83;21062;-38
2022/11/01 07:30:36;;;;;;;10.35;3.90;;;;;;;5.21;72.15;100789.02;1685560;84;21619;-39
2022/11/01 07:33:03;;;;;;;6.30;4.03;;;;;;;5.34;71.50;100785.97;1683380;83;21587;-47
2022/11/01 07:35:30;;;;;;;7.25;3.72;;;;;;;5.46;70.38;100787.62;1687068;84;21096;-40
2022/11/01 07:37:59;;;;;;;4.80;3.22;;;;;;;5.57;69.61;100790.10;1674630;84;21514;-47
2022/11/01 07:40:26;;;;;;;7.80;3.87;;;;;;;5.69;69.17;100786.09;1661607;85;21091;-48
2022/11/01 07:42:58;;;;;;;5.45;3.00;;;;;;;5.79;68.00;100779.86;1667210;85;21982;-38
2022/11/01 07:47:52;;;;;;;7.75;3.37;;;;;;;6.02;65.88;100775.73;1810740;79;22931;-40
2022/11/01 07:50:19;;;;;;;5.53;3.37;;;;;;;6.04;65.64;100777.55;1757558;81;20998;-46
2022/11/01 07:52:46;;;;;;;8.55;2.70;;;;;;;6.16;65.62;100774.80;1725364;81;21075;-39
2022/11/01 07:55:13;;;;;;;6.08;2.35;;;;;;;6.24;64.02;100770.67;1745076;81;20998;-49
2022/11/01 07:57:40;;;;;;;7.67;2.72;;;;;;;6.32;63.08;100779.52;1741318;81;21654;-48
2022/11/01 08:00:10;;;;;;;7.85;3.05;;;;;;;6.38;62.63;100772.78;1758743;80;21026;-47
2022/11/01 08:02:39;;;;;;;6.15;2.75;;;;;;;6.47;62.72;100772.53;1755017;80;21582;-41
2022/11/01 08:05:10;;;;;;;6.12;2.30;;;;;;;6.59;62.38;100775.42;1737629;81;20995;-39
2022/11/01 08:07:38;;;;;;;5.20;2.55;;;;;;;6.69;61.00;100773.50;1759762;80;21525;-47
2022/11/01 08:10:08;;;;;;;4.90;2.30;;;;;;;6.77;59.70;100775.84;1760863;81;21026;-48
2022/11/01 08:12:34;;;;;;;7.05;2.42;;;;;;;6.82;58.75;100769.45;1758606;80;21531;-47
2022/11/01 08:15:03;;;;;;;6.05;1.90;;;;;;;6.86;58.04;100777.37;1755501;81;21010;-51
2022/11/01 08:17:32;;;;;;;4.30;2.27;;;;;;;6.88;57.32;100773.06;1751454;81;21064;-48
2022/11/01 08:19:59;;;;;;;4.60;2.42;;;;;;;6.92;58.31;100776.20;1757518;81;21065;-47
2022/11/01 08:22:25;;;;;;;4.55;2.10;;;;;;;6.99;58.39;100772.44;1760015;80;21053;-38
2022/11/01 08:24:52;;;;;;;4.10;2.02;;;;;;;7.09;58.12;100777.88;1760326;81;21033;-48
2022/11/01 08:27:19;;;;;;;5.33;2.65;;;;;;;7.19;57.68;100773.77;1741578;81;21036;-45
2022/11/01 08:29:46;;;;;;;4.28;2.05;;;;;;;7.29;57.75;100765.70;1748779;81;21015;-39
2022/11/01 08:32:13;;;;;;;5.78;2.33;;;;;;;7.41;57.39;100763.34;1720603;81;21008;-47
2022/11/01 08:34:40;;;;;;;4.25;1.65;;;;;;;7.51;56.59;100761.81;1740418;81;21101;-47
2022/11/01 08:37:07;;;;;;;8.50;2.12;;;;;;;7.59;55.81;100770.22;1730257;81;21586;-39
2022/11/01 08:39:35;;;;;;;3.33;1.98;;;;;;;7.64;55.36;100765.10;1747177;81;21101;-45
2022/11/01 08:42:04;;;;;;;5.58;1.67;;;;;;;7.68;55.19;100760.42;1758629;81;21128;-39
2022/11/01 08:44:33;;;;;;;4.22;1.87;;;;;;;7.75;55.87;100772.70;1747766;81;21105;-47
2022/11/01 08:47:00;;;;;;;2.35;1.50;;;;;;;7.87;55.34;100765.11;1753865;81;21094;-39
2022/11/01 08:49:27;;;;;;;3.50;1.90;;;;;;;8.00;54.79;100770.11;1747485;81;21130;-46
2022/11/01 08:51:54;;;;;;;4.72;1.77;;;;;;;8.08;53.87;100762.45;1733581;82;21042;-47
2022/11/01 08:54:21;;;;;;;6.42;2.10;;;;;;;8.11;53.25;100768.57;1732849;81;21706;-47
2022/11/01 08:56:48;;;;;;;4.58;1.65;;;;;;;8.14;52.84;100763.86;1721411;82;21096;-39
2022/11/01 08:59:14;;;;;;;6.53;2.05;;;;;;;8.18;53.05;100754.82;1719378;82;21572;-47
2022/11/01 09:01:41;;;;;;;3.15;1.30;;;;;;;8.26;51.90;100761.45;1746963;82;21054;-47
2022/11/01 09:04:08;;;;;;;3.15;1.62;;;;;;;8.31;52.08;100759.81;1736715;81;20999;-47
2022/11/01 09:06:34;;;;;;;3.67;2.22;;;;;;;8.36;52.17;100752.10;1728407;82;21700;-39
2022/11/01 09:09:02;;;;;;;4.12;2.00;;;;;;;8.43;51.77;100750.03;1745727;81;21421;-39
2022/11/01 09:11:29;;;;;;;2.25;1.20;;;;;;;8.52;51.33;100742.34;1745626;82;21022;-47
2022/11/01 09:13:56;;;;;;;3.22;1.52;;;;;;;8.60;49.89;100747.69;1727335;82;21691;-46
2022/11/01 09:16:23;;;;;;;3.25;1.57;;;;;;;8.63;50.09;100740.77;1745682;82;21561;-46
2022/11/01 09:18:51;;;;;;;6.25;2.00;;;;;;;8.70;50.22;100743.95;1746007;81;21746;-46
2022/11/01 09:21:19;;;;;;;3.60;1.60;;;;;;;8.80;50.35;100742.33;1720632;82;21555;-40
2022/11/01 09:23:46;;;;;;;3.60;1.40;;;;;;;8.90;49.71;100730.30;1741165;81;21062;-39
2022/11/01 09:26:13;;;;;;;3.37;2.02;;;;;;;9.04;50.03;100732.64;1721845;82;21171;-39
2022/11/01 09:28:40;;;;;;;3.72;1.75;;;;;;;9.15;47.69;100732.79;1739584;81;21051;-39
2022/11/01 09:31:09;;;;;;;4.47;2.05;;;;;;;9.15;48.11;100732.79;1746824;82;21769;-39
2022/11/01 09:33:36;;;;;;;3.55;1.77;;;;;;;9.19;48.93;100735.47;1746726;81;21605;-39
2022/11/01 09:36:03;;;;;;;2.62;1.40;;;;;;;9.27;48.23;100732.51;1746873;82;21405;-40
2022/11/01 09:38:30;;;;;;;4.35;2.05;;;;;;;9.33;47.78;100734.31;1728005;82;21442;-40
2022/11/01 09:41:08;;;;;;;4.00;1.40;;;;;;;9.40;47.34;100735.30;1713745;82;21029;-40
2022/11/01 09:43:36;;;;;;;5.20;2.30;;;;;;;9.45;47.13;100741.02;1735390;81;21121;-46
2022/11/01 09:46:03;;;;;;;4.90;1.50;;;;;;;9.56;47.05;100730.66;1725446;82;21564;-46
2022/11/01 09:48:30;;;;;;;3.70;1.67;;;;;;;9.67;45.87;100724.25;1740532;81;21036;-39
2022/11/01 09:51:00;;;;;;;4.80;1.60;;;;;;;9.78;44.72;100733.95;1755231;81;21035;-40
2022/11/01 09:53:27;;;;;;;5.95;1.40;;;;;;;9.93;44.46;100733.24;1757065;80;21034;-39
2022/11/01 09:56:13;;;;;;;3.80;1.52;;;;;;;10.12;44.83;100727.30;1759990;81;21077;-38
2022/11/01 09:58:46;;;;;;;3.42;1.90;;;;;;;10.43;44.38;100727.58;1758644;80;21513;-41
2022/11/01 10:01:41;;;;;;;3.92;1.98;;;;;;;10.96;42.97;100722.23;1759395;81;20962;-39
2022/11/01 10:04:33;;;;;;;4.55;1.47;;;;;;;11.44;41.33;100713.73;1759218;80;21125;-39
2022/11/01 10:07:12;;;;;;;2.05;1.35;;;;;;;11.95;40.11;100707.75;1759325;81;21093;-41
2022/11/01 10:10:05;;;;;;;4.78;1.35;;;;;;;12.37;39.04;100709.06;1692261;81;21446;-46
2022/11/01 10:12:47;;;;;;;2.02;1.40;;;;;;;12.66;38.11;100706.40;1739523;80;21022;-39
2022/11/01 10:15:26;;;;;;;6.20;1.80;;;;;;;12.99;37.96;100701.06;1730817;81;20986;-46
2022/11/01 10:17:53;;;;;;;3.83;1.60;;;;;;;13.46;37.04;100692.13;1745285;81;21051;-39
2022/11/01 10:20:24;;;;;;;3.37;1.57;;;;;;;13.91;36.45;100695.77;1750759;81;20993;-39
2022/11/01 10:22:51;;;;;;;3.90;1.90;;;;;;;14.25;35.27;100688.03;1741446;80;21050;-47
2022/11/01 10:25:23;;;;;;;3.25;1.60;;;;;;;14.60;34.86;100684.22;1758338;81;20978;-47
2022/11/01 10:28:16;;;;;;;2.10;1.15;;;;;;;14.91;33.50;100690.05;1758249;80;21881;-38
2022/11/01 10:30:46;;;;;;;2.80;1.30;;;;;;;15.07;33.16;100677.09;1742010;81;21042;-39
2022/11/01 10:33:31;;;;;;;2.35;1.40;;;;;;;15.18;33.16;100673.88;1744926;81;21046;-38
2022/11/01 10:36:01;;;;;;;3.00;1.27;;;;;;;15.40;31.81;100669.20;1737924;81;21511;-40
2022/11/01 10:38:36;;;;;;;4.67;1.50;;;;;;;15.53;30.22;100668.57;1744708;81;21086;-40
2022/11/01 10:41:21;;;;;;;4.45;1.62;;;;;;;15.59;29.71;100665.84;1744121;81;22659;-40
2022/11/01 10:43:57;;;;;;;5.58;1.57;;;;;;;15.62;29.71;100653.08;1742964;81;21066;-47
2022/11/01 10:46:30;;;;;;;2.08;1.20;;;;;;;15.78;29.68;100653.30;1755225;81;21018;-40
2022/11/01 10:49:00;;;;;;;3.20;1.50;;;;;;;16.03;29.19;100653.77;1718134;82;21068;-41
2022/11/01 10:51:28;;;;;;;3.08;1.20;;;;;;;16.31;29.46;100657.27;1739185;82;21006;-39
2022/11/01 10:54:01;;;;;;;5.37;1.45;;;;;;;16.61;28.92;100652.73;1729025;81;21095;-38
2022/11/01 10:56:40;;;;;;;2.60;1.72;;;;;;;16.86;28.06;100653.14;1717500;82;21044;-38
2022/11/01 10:59:23;;;;;;;6.70;1.65;;;;;;;16.97;26.64;100652.47;1746359;81;21550;-40
2022/11/01 11:01:50;;;;;;;1.80;1.15;;;;;;;16.95;26.56;100653.42;1745704;82;21050;-39
2022/11/01 11:04:20;;;;;;;1.12;0.93;;;;;;;17.07;26.91;100657.13;1730929;82;21556;-40
2022/11/01 11:06:47;;;;;;;2.90;1.60;;;;;;;17.18;26.42;100659.09;1716599;82;21082;-40
2022/11/01 11:09:22;;;;;;;2.35;1.60;;;;;;;17.27;26.81;100658.02;1746584;81;21636;-42
2022/11/01 11:11:50;;;;;;;2.15;1.35;;;;;;;17.48;26.79;100654.90;1737438;82;21590;-50
2022/11/01 11:14:18;;;;;;;4.55;2.20;;;;;;;17.67;27.37;100658.44;1736851;81;21098;-47
2022/11/01 11:16:55;;;;;;;3.55;1.82;;;;;;;17.71;27.31;100661.44;1739359;82;21521;-40
2022/11/01 11:19:33;;;;;;;4.47;3.15;;;;;;;17.77;27.17;100654.25;1739773;81;21098;-39
2022/11/01 11:22:01;;;;;;;2.80;2.00;;;;;;;17.66;26.87;100660.22;1744178;82;21018;-39
2022/11/01 11:24:38;;;;;;;2.60;1.70;;;;;;;17.63;26.83;100654.15;1725077;82;21684;-47
2022/11/01 11:27:25;;;;;;;3.17;1.60;;;;;;;17.66;26.42;100656.25;1746340;82;21027;-47
2022/11/01 11:30:00;;;;;;;2.70;1.32;;;;;;;17.70;27.28;100654.41;1746833;82;21502;-47
2022/11/01 11:32:31;;;;;;;3.15;1.30;;;;;;;17.79;25.57;100652.89;1746849;81;21034;-43
2022/11/01 11:35:07;;;;;;;2.85;1.50;;;;;;;17.56;25.42;100660.01;1747420;82;21022;-48
2022/11/01 11:37:34;;;;;;;3.67;2.00;;;;;;;17.39;26.03;100668.77;1737715;81;21605;-39
2022/11/01 11:40:22;;;;;;;2.83;1.67;;;;;;;17.18;26.23;100664.84;1721337;82;21043;-40
2022/11/01 11:42:52;;;;;;;4.92;2.05;;;;;;;16.89;26.12;100667.63;1747242;81;21089;-41
2022/11/01 11:45:28;;;;;;;10.38;1.98;;;;;;;16.54;27.08;100659.03;1747207;82;21054;-39
2022/11/01 11:48:05;;;;;;;5.30;2.30;;;;;;;16.28;27.07;100659.49;1754687;80;21034;-39
2022/11/01 11:50:32;;;;;;;8.30;3.08;;;;;;;15.95;27.73;100653.04;1720025;81;21473;-47
2022/11/01 11:53:06;;;;;;;6.67;2.92;;;;;;;15.89;27.63;100646.55;1745411;81;21356;-47
2022/11/01 11:55:42;;;;;;;6.35;2.58;;;;;;;15.88;27.58;100651.38;1730201;81;21007;-47
2022/11/01 11:58:21;;;;;;;13.15;3.27;;;;;;;15.88;27.38;100649.60;1747394;80;21018;-40
2022/11/01 12:00:51;;;;;;;3.60;2.22;;;;;;;15.90;27.47;100646.52;1760508;81;21018;-46
2022/11/01 12:03:18;;;;;;;4.47;2.22;;;;;;;15.80;27.33;100649.31;1760565;80;21481;-47
2022/11/01 12:05:56;;;;;;;6.25;2.00;;;;;;;15.66;27.32;100646.91;1753953;81;21423;-48
2022/11/01 12:08:31;;;;;;;4.25;2.50;;;;;;;15.47;27.40;100644.06;1743079;81;21779;-39
2022/11/01 12:10:59;;;;;;;8.58;2.75;;;;;;;15.30;28.18;100645.17;1744107;81;21080;-46
2022/11/01 12:13:34;;;;;;;6.55;2.77;;;;;;;15.33;28.02;100650.86;1745067;81;21096;-46
2022/11/01 12:16:23;;;;;;;5.80;2.30;;;;;;;15.41;27.83;100645.89;1753460;81;21045;-47
2022/11/01 12:19:02;;;;;;;6.47;2.62;;;;;;;15.38;27.85;100645.95;1752161;80;21608;-40
2022/11/01 12:21:39;;;;;;;5.47;1.98;;;;;;;15.15;28.04;100646.27;1729848;81;21570;-47
2022/11/01 12:24:38;;;;;;;8.85;2.45;;;;;;;14.89;27.39;100641.31;1760356;80;21525;-40
2022/11/01 12:27:10;;;;;;;5.20;2.22;;;;;;;14.69;27.85;100634.55;1745113;81;21070;-39
2022/11/01 12:29:41;;;;;;;7.77;2.50;;;;;;;14.72;28.40;100643.27;1745745;81;21094;-47
2022/11/01 12:32:18;;;;;;;7.58;2.40;;;;;;;14.83;28.21;100640.52;1733037;81;21385;-47
2022/11/01 12:34:47;;;;;;;8.73;2.65;;;;;;;14.94;27.72;100637.30;1745163;81;21513;-47
2022/11/01 12:37:25;;;;;;;7.00;2.33;;;;;;;15.13;27.72;100639.25;1760714;81;21996;-48
2022/11/01 12:40:17;;;;;;;6.80;2.47;;;;;;;15.48;27.41;100641.84;1760770;81;21434;-39
2022/11/01 12:42:53;;;;;;;5.42;2.30;;;;;;;15.77;27.30;100635.74;1760519;80;21150;-46
2022/11/01 12:46:03;;;;;;;4.87;2.17;;;;;;;15.73;27.31;100639.31;1734399;81;21034;-47
2022/11/01 12:48:52;;;;;;;8.45;2.15;;;;;;;15.68;27.29;100639.38;1760552;80;21121;-48
2022/11/01 12:51:26;;;;;;;6.25;2.35;;;;;;;15.59;27.35;100636.83;1743254;81;21051;-46
2022/11/01 12:54:07;;;;;;;8.60;2.20;;;;;;;15.37;27.72;100635.44;1747555;81;21098;-40
2022/11/01 12:56:34;;;;;;;4.45;1.75;;;;;;;15.03;28.15;100639.84;1748016;81;21554;-47
2022/11/01 12:59:01;;;;;;;2.83;1.70;;;;;;;14.72;28.90;100645.03;1754686;81;21061;-39
2022/11/01 13:01:36;;;;;;;6.70;2.77;;;;;;;14.53;29.75;100647.88;1757975;81;21030;-39
2022/11/01 13:04:24;;;;;;;12.63;6.20;;;;;;;14.47;30.19;100645.31;1760132;80;21129;-46
2022/11/01 13:07:22;;;;;;;8.48;3.80;;;;;;;14.70;30.06;100646.83;1760596;81;21065;-39
2022/11/01 13:10:20;;;;;;;12.58;4.12;;;;;;;15.01;29.40;100640.73;1760810;81;21018;-40
2022/11/01 13:13:02;;;;;;;7.35;1.90;;;;;;;14.80;29.65;100634.85;1752553;81;21933;-47
2022/11/01 13:15:37;;;;;;;3.75;2.00;;;;;;;14.47;29.58;100640.05;1753939;81;21053;-47
2022/11/01 13:18:40;;;;;;;4.45;2.20;;;;;;;14.17;30.04;100638.56;1758609;81;21053;-39
2022/11/01 13:21:38;;;;;;;6.72;2.77;;;;;;;14.08;30.70;100639.50;1714578;83;21044;-39
2022/11/01 13:24:32;;;;;;;5.28;2.70;;;;;;;14.42;31.34;100633.91;1724040;83;21651;-48
